createdAt,value
2023-01-05T00:01:04.254Z,94439.66
2023-01-05T00:03:31.265Z,94427.22
2023-01-05T00:06:07.549Z,94438.81
2023-01-05T00:08:37.518Z,94443.81
2023-01-05T00:11:29.182Z,94433.38
2023-01-05T00:14:14.415Z,94425.06
2023-01-05T00:16:59.756Z,94434.00
2023-01-05T00:19:44.975Z,94429.44
2023-01-05T00:22:31.690Z,94437.84
2023-01-05T00:25:02.168Z,94430.13
2023-01-05T00:27:31.985Z,94424.34
2023-01-05T00:29:59.173Z,94424.34
2023-01-05T00:32:26.615Z,94418.88
2023-01-05T00:34:59.860Z,94414.66
2023-01-05T00:37:30.256Z,94407.50
2023-01-05T00:39:56.927Z,94403.75
2023-01-05T00:42:23.621Z,94397.78
2023-01-05T00:44:50.251Z,94393.16
2023-01-05T00:47:16.934Z,94391.53
2023-01-05T00:49:43.709Z,94387.03
2023-01-05T00:52:10.428Z,94385.09
2023-01-05T00:54:37.021Z,94367.19
2023-01-05T00:57:03.809Z,94386.38
2023-01-05T00:59:30.472Z,94373.38
2023-01-05T01:01:57.210Z,94370.66
2023-01-05T01:04:23.988Z,94374.66
2023-01-05T01:06:50.744Z,94368.00
2023-01-05T01:09:17.698Z,94367.84
2023-01-05T01:11:44.574Z,94365.44
2023-01-05T01:14:12.483Z,94359.94
2023-01-05T01:16:40.695Z,94358.25
2023-01-05T01:19:07.463Z,94359.22
2023-01-05T01:21:34.191Z,94360.47
2023-01-05T01:24:00.828Z,94349.66
2023-01-05T01:26:27.483Z,94357.69
2023-01-05T01:28:54.120Z,94366.66
2023-01-05T01:31:20.868Z,94365.41
2023-01-05T01:33:47.655Z,94360.59
2023-01-05T01:36:14.298Z,94348.72
2023-01-05T01:38:40.904Z,94346.84
2023-01-05T01:41:07.573Z,94340.84
2023-01-05T01:43:52.194Z,94341.81
2023-01-05T01:46:20.229Z,94329.94
2023-01-05T01:49:10.078Z,94336.84
2023-01-05T01:51:41.339Z,94334.56
2023-01-05T01:54:10.336Z,94331.03
2023-01-05T01:56:39.862Z,94325.91
2023-01-05T01:59:07.147Z,94339.38
2023-01-05T02:01:34.348Z,94339.38
2023-01-05T02:04:02.114Z,94330.34
2023-01-05T02:06:28.799Z,94318.81
2023-01-05T02:08:55.478Z,94323.59
2023-01-05T02:11:27.939Z,94330.69
2023-01-05T02:14:00.381Z,94330.50
2023-01-05T02:16:43.629Z,94337.78
2023-01-05T02:19:42.693Z,94332.63
2023-01-05T02:22:46.815Z,94324.13
2023-01-05T02:25:28.533Z,94310.16
2023-01-05T02:28:10.453Z,94323.34
2023-01-05T02:31:09.559Z,94311.91
2023-01-05T02:33:54.950Z,94304.63
2023-01-05T02:36:33.040Z,94299.16
2023-01-05T02:39:15.518Z,94285.84
2023-01-05T02:42:05.493Z,94268.00
2023-01-05T02:44:33.596Z,94263.59
2023-01-05T02:47:07.101Z,94261.09
2023-01-05T02:49:39.164Z,94259.72
2023-01-05T02:52:06.893Z,94246.25
2023-01-05T02:54:45.042Z,94237.03
2023-01-05T02:57:15.438Z,94227.81
2023-01-05T02:59:44.776Z,94227.16
2023-01-05T03:02:16.454Z,94220.50
2023-01-05T03:04:48.819Z,94228.63
2023-01-05T03:07:19.177Z,94235.81
2023-01-05T03:09:46.089Z,94232.22
2023-01-05T03:12:38.185Z,94231.78
2023-01-05T03:15:21.281Z,94217.00
2023-01-05T03:17:51.083Z,94213.53
2023-01-05T03:20:22.092Z,94207.16
2023-01-05T03:23:08.508Z,94205.34
2023-01-05T03:25:57.174Z,94196.56
2023-01-05T03:28:57.639Z,94208.91
2023-01-05T03:31:48.981Z,94205.88
2023-01-05T03:35:03.836Z,94191.53
2023-01-05T03:37:53.925Z,94199.59
2023-01-05T03:40:24.906Z,94194.38
2023-01-05T03:42:51.992Z,94185.84
2023-01-05T03:45:19.302Z,94174.19
2023-01-05T03:47:45.929Z,94167.84
2023-01-05T03:50:13.129Z,94173.97
2023-01-05T03:52:39.834Z,94169.41
2023-01-05T03:55:06.857Z,94161.88
2023-01-05T03:57:33.491Z,94151.75
2023-01-05T04:00:00.257Z,94153.97
2023-01-05T04:02:27.141Z,94133.38
2023-01-05T04:04:53.877Z,94130.19
2023-01-05T04:07:20.677Z,94132.88
2023-01-05T04:09:47.406Z,94121.75
2023-01-05T04:12:14.056Z,94111.06
2023-01-05T04:14:40.808Z,94107.91
2023-01-05T04:17:07.547Z,94113.03
2023-01-05T04:19:34.305Z,94119.69
2023-01-05T04:22:00.959Z,94121.38
2023-01-05T04:24:27.664Z,94127.78
2023-01-05T04:26:54.328Z,94121.22
2023-01-05T04:29:21.031Z,94133.44
2023-01-05T04:31:47.796Z,94131.00
2023-01-05T04:34:14.515Z,94115.13
2023-01-05T04:36:41.516Z,94116.19
2023-01-05T04:39:08.393Z,94111.44
2023-01-05T04:41:35.118Z,94104.25
2023-01-05T04:44:01.812Z,94100.72
2023-01-05T04:46:28.561Z,94096.03
2023-01-05T04:48:55.285Z,94099.31
2023-01-05T04:51:22.097Z,94094.66
2023-01-05T04:53:48.832Z,94093.94
2023-01-05T04:56:15.685Z,94082.44
2023-01-05T04:58:42.852Z,94080.66
2023-01-05T05:01:09.676Z,94083.84
2023-01-05T05:03:36.473Z,94083.03
2023-01-05T05:06:03.379Z,94091.09
2023-01-05T05:08:30.207Z,94077.19
2023-01-05T05:10:57.067Z,94071.31
2023-01-05T05:13:23.755Z,94083.38
2023-01-05T05:15:50.468Z,94074.16
2023-01-05T05:18:17.256Z,94073.72
2023-01-05T05:20:45.824Z,94076.19
2023-01-05T05:23:12.555Z,94090.50
2023-01-05T05:25:39.159Z,94072.63
2023-01-05T05:28:05.911Z,94081.41
2023-01-05T05:30:32.563Z,94069.31
2023-01-05T05:32:59.184Z,94076.03
2023-01-05T05:35:25.768Z,94071.59
2023-01-05T05:37:56.359Z,94058.50
2023-01-05T05:40:23.759Z,94042.59
2023-01-05T05:42:50.371Z,94062.47
2023-01-05T05:45:17.057Z,94063.00
2023-01-05T05:47:44.231Z,94064.59
2023-01-05T05:50:10.975Z,94059.69
2023-01-05T05:52:37.785Z,94042.91
2023-01-05T05:55:05.070Z,94054.88
2023-01-05T05:57:31.612Z,94053.09
2023-01-05T05:59:58.228Z,94054.47
2023-01-05T06:02:24.873Z,94048.56
2023-01-05T06:04:51.500Z,94047.88
2023-01-05T06:07:18.088Z,94053.50
2023-01-05T06:09:44.676Z,94066.38
2023-01-05T06:12:11.291Z,94063.50
2023-01-05T06:14:38.023Z,94051.06
2023-01-05T06:17:04.666Z,94047.53
2023-01-05T06:19:31.318Z,94061.84
2023-01-05T06:21:57.903Z,94058.16
2023-01-05T06:24:24.722Z,94073.88
2023-01-05T06:26:51.386Z,94081.44
2023-01-05T06:29:18.153Z,94079.72
2023-01-05T06:31:44.979Z,94069.59
2023-01-05T06:34:11.747Z,94072.81
2023-01-05T06:36:38.473Z,94061.47
2023-01-05T06:39:05.076Z,94069.63
2023-01-05T06:41:31.658Z,94067.34
2023-01-05T06:43:58.276Z,94070.06
2023-01-05T06:46:25.027Z,94078.75
2023-01-05T06:48:51.881Z,94073.59
2023-01-05T06:51:18.945Z,94082.56
2023-01-05T06:53:45.748Z,94084.69
2023-01-05T06:56:12.501Z,94085.97
2023-01-05T06:58:39.129Z,94075.78
2023-01-05T07:01:05.967Z,94075.97
2023-01-05T07:03:32.788Z,94079.63
2023-01-05T07:05:59.493Z,94091.22
2023-01-05T07:08:26.156Z,94090.22
2023-01-05T07:10:52.852Z,94092.19
2023-01-05T07:13:19.543Z,94090.22
2023-01-05T07:15:46.228Z,94077.31
2023-01-05T07:18:12.905Z,94082.97
2023-01-05T07:20:39.668Z,94087.56
2023-01-05T07:23:06.254Z,94087.78
2023-01-05T07:25:33.355Z,94089.78
2023-01-05T07:27:59.996Z,94083.63
2023-01-05T07:30:26.811Z,94089.22
2023-01-05T07:32:53.496Z,94079.75
2023-01-05T07:35:20.228Z,94088.09
2023-01-05T07:37:46.865Z,94108.94
2023-01-05T07:40:13.662Z,94092.66
2023-01-05T07:42:40.321Z,94090.66
2023-01-05T07:45:07.609Z,94106.59
2023-01-05T07:47:34.413Z,94096.28
2023-01-05T07:50:01.985Z,94090.63
2023-01-05T07:52:30.287Z,94101.38
2023-01-05T07:54:58.399Z,94101.38
2023-01-05T07:57:25.074Z,94102.59
2023-01-05T07:59:51.847Z,94112.94
2023-01-05T08:02:18.777Z,94099.63
2023-01-05T08:04:45.712Z,94095.66
2023-01-05T08:07:12.627Z,94120.50
2023-01-05T08:09:57.977Z,94120.47
2023-01-05T08:12:24.742Z,94116.53
2023-01-05T08:14:51.462Z,94115.94
2023-01-05T08:17:18.175Z,94105.69
2023-01-05T08:19:44.906Z,94121.41
2023-01-05T08:22:11.731Z,94107.72
2023-01-05T08:24:38.511Z,94120.47
2023-01-05T08:27:05.326Z,94110.69
2023-01-05T08:29:32.038Z,94113.97
2023-01-05T08:31:58.788Z,94128.94
2023-01-05T08:34:29.999Z,94120.75
2023-01-05T08:36:59.697Z,94122.38
2023-01-05T08:39:26.495Z,94126.41
2023-01-05T08:41:57.410Z,94131.16
2023-01-05T08:44:27.439Z,94134.94
2023-01-05T08:46:54.194Z,94132.38
2023-01-05T08:49:21.053Z,94133.53
2023-01-05T08:51:47.797Z,94132.59
2023-01-05T08:54:14.450Z,94140.75
2023-01-05T08:56:42.984Z,94153.28
2023-01-05T08:59:12.655Z,94143.16
2023-01-05T09:01:40.318Z,94147.09
2023-01-05T09:04:07.326Z,94145.31
2023-01-05T09:06:34.350Z,94142.94
2023-01-05T09:09:01.191Z,94155.06
2023-01-05T09:11:27.929Z,94151.03
2023-01-05T09:13:57.793Z,94156.00
2023-01-05T09:17:05.753Z,94151.44
2023-01-05T09:19:14.471Z,94157.56
2023-01-05T09:21:41.285Z,94160.16
2023-01-05T09:24:08.883Z,94161.53
2023-01-05T09:26:35.673Z,94171.69
2023-01-05T09:29:02.368Z,94171.09
2023-01-05T09:31:29.479Z,94158.50
2023-01-05T09:33:59.538Z,94169.25
2023-01-05T09:36:26.303Z,94188.56
2023-01-05T09:38:53.861Z,94187.97
2023-01-05T09:41:26.285Z,94186.38
2023-01-05T09:43:56.616Z,94202.59
2023-01-05T09:46:34.494Z,94199.59
2023-01-05T09:49:03.642Z,94180.34
2023-01-05T09:51:30.921Z,94194.31
2023-01-05T09:53:58.892Z,94179.97
2023-01-05T09:59:25.067Z,94188.72
2023-01-05T10:01:53.123Z,94186.75
2023-01-05T10:04:30.085Z,94179.56
2023-01-05T10:07:04.504Z,94167.19
2023-01-05T10:09:34.272Z,94174.53
2023-01-05T10:12:28.706Z,94164.72
2023-01-05T10:15:08.993Z,94167.31
2023-01-05T10:17:42.436Z,94171.09
2023-01-05T10:20:26.804Z,94168.53
2023-01-05T10:23:06.102Z,94176.69
2023-01-05T10:25:48.017Z,94169.34
2023-01-05T10:28:32.954Z,94166.75
2023-01-05T10:31:02.411Z,94166.75
2023-01-05T10:33:53.131Z,94168.94
2023-01-05T10:39:58.979Z,94140.63
2023-01-05T10:43:08.212Z,94148.50
2023-01-05T10:45:51.173Z,94140.69
2023-01-05T10:48:29.784Z,94126.03
2023-01-05T10:50:57.845Z,94119.13
2023-01-05T10:53:26.696Z,94118.13
2023-01-05T10:56:04.814Z,94122.13
2023-01-05T10:58:39.059Z,94119.03
2023-01-05T11:01:23.947Z,94111.59
2023-01-05T11:07:07.187Z,94111.75
2023-01-05T11:09:39.382Z,94105.56
2023-01-05T11:12:06.373Z,94110.97
2023-01-05T11:14:38.060Z,94118.22
2023-01-05T11:17:07.267Z,94121.09
2023-01-05T11:19:42.063Z,94124.25
2023-01-05T11:22:27.541Z,94129.03
2023-01-05T11:24:54.263Z,94121.06
2023-01-05T11:27:20.959Z,94126.09
2023-01-05T11:30:10.544Z,94123.31
2023-01-05T11:32:37.249Z,94104.19
2023-01-05T11:35:04.143Z,94125.41
2023-01-05T11:37:31.372Z,94120.94
2023-01-05T11:40:00.701Z,94131.00
2023-01-05T11:42:27.405Z,94144.88
2023-01-05T11:44:55.579Z,94143.38
2023-01-05T11:47:37.809Z,94137.69
2023-01-05T11:50:14.559Z,94136.16
2023-01-05T11:52:43.703Z,94142.75
2023-01-05T11:55:30.049Z,94127.19
2023-01-05T11:58:17.821Z,94129.53
2023-01-05T12:00:51.056Z,94137.56
2023-01-05T12:03:50.026Z,94141.19
2023-01-05T12:06:53.722Z,94134.34
2023-01-05T12:09:36.069Z,94129.38
2023-01-05T12:12:21.594Z,94137.66
2023-01-05T12:15:21.973Z,94139.03
2023-01-05T12:18:15.974Z,94121.72
2023-01-05T12:20:48.331Z,94137.97
2023-01-05T12:23:32.406Z,94132.78
2023-01-05T12:26:14.318Z,94135.00
2023-01-05T12:30:22.412Z,94133.41
2023-01-05T12:35:08.739Z,94140.34
2023-01-05T12:38:04.622Z,94152.78
2023-01-05T12:40:49.880Z,94135.50
2023-01-05T12:43:39.095Z,94149.47
2023-01-05T12:46:43.140Z,94149.34
2023-01-05T12:49:18.323Z,94149.53
2023-01-05T12:51:53.735Z,94156.94
2023-01-05T12:54:32.163Z,94154.75
2023-01-05T12:57:03.835Z,94149.34
2023-01-05T12:59:40.764Z,94158.31
2023-01-05T13:02:07.634Z,94161.69
2023-01-05T13:04:43.098Z,94154.97
2023-01-05T13:07:30.642Z,94164.13
2023-01-05T13:10:03.971Z,94153.94
2023-01-05T13:12:31.865Z,94149.75
2023-01-05T13:15:18.061Z,94148.56
2023-01-05T13:17:48.852Z,94145.81
2023-01-05T13:20:41.330Z,94152.78
2023-01-05T13:23:25.915Z,94138.03
2023-01-05T13:26:03.300Z,94141.47
2023-01-05T13:28:31.970Z,94132.31
2023-01-05T13:31:25.038Z,94169.19
2023-01-05T13:34:13.206Z,94176.41
2023-01-05T13:36:46.061Z,94176.41
2023-01-05T13:39:37.975Z,94180.78
2023-01-05T13:42:11.499Z,94169.44
2023-01-05T13:45:04.055Z,94183.00
2023-01-05T13:47:56.467Z,94196.19
2023-01-05T13:50:48.485Z,94199.31
2023-01-05T13:55:59.297Z,94190.03
2023-01-05T13:58:41.301Z,94189.63
2023-01-05T14:01:14.980Z,94188.25
2023-01-05T14:06:27.150Z,94194.22
2023-01-05T14:08:58.181Z,94203.78
2023-01-05T14:11:26.669Z,94199.63
2023-01-05T14:14:05.011Z,94204.66
2023-01-05T14:16:35.234Z,94203.25
2023-01-05T14:19:15.101Z,94208.03
2023-01-05T14:21:54.606Z,94213.34
2023-01-05T14:24:27.075Z,94226.28
2023-01-05T14:27:12.137Z,94233.47
2023-01-05T14:29:47.960Z,94242.69
2023-01-05T14:32:40.024Z,94234.34
2023-01-05T14:35:12.453Z,94230.16
2023-01-05T14:37:52.536Z,94236.13
2023-01-05T14:40:31.795Z,94227.78
2023-01-05T14:42:59.827Z,94225.63
2023-01-05T14:45:32.343Z,94229.56
2023-01-05T14:48:07.477Z,94227.78
2023-01-05T14:50:42.130Z,94216.63
2023-01-05T14:53:13.189Z,94212.66
2023-01-05T14:56:01.647Z,94220.63
2023-01-05T14:58:37.414Z,94239.34
2023-01-05T15:01:19.216Z,94227.41
2023-01-05T15:04:05.628Z,94224.00
2023-01-05T15:07:24.615Z,94229.41
2023-01-05T15:10:00.324Z,94241.38
2023-01-05T15:12:52.316Z,94246.53
2023-01-05T15:15:46.871Z,94241.75
2023-01-05T15:18:41.047Z,94236.19
2023-01-05T15:21:25.103Z,94240.38
2023-01-05T15:24:09.311Z,94249.13
2023-01-05T15:26:48.739Z,94252.75
2023-01-05T15:29:37.005Z,94235.03
2023-01-05T15:32:06.689Z,94263.47
2023-01-05T15:34:33.397Z,94258.31
2023-01-05T15:37:36.078Z,94250.97
2023-01-05T15:40:07.784Z,94250.16
2023-01-05T15:42:43.072Z,94255.94
2023-01-05T15:45:29.272Z,94251.72
2023-01-05T15:48:07.170Z,94259.72
2023-01-05T15:50:47.175Z,94265.88
2023-01-05T15:53:33.346Z,94259.09
2023-01-05T15:56:00.854Z,94262.31
2023-01-05T15:58:30.049Z,94260.69
2023-01-05T16:01:08.661Z,94249.75
2023-01-05T16:03:37.515Z,94254.91
2023-01-05T16:06:08.244Z,94258.50
2023-01-05T16:08:39.657Z,94253.13
2023-01-05T16:11:09.657Z,94253.34
2023-01-05T16:13:55.019Z,94251.75
2023-01-05T16:16:53.995Z,94253.34
2023-01-05T16:19:48.916Z,94256.13
2023-01-05T16:22:39.128Z,94246.19
2023-01-05T16:25:20.157Z,94253.34
2023-01-05T16:27:49.537Z,94246.19
2023-01-05T16:30:36.256Z,94250.97
2023-01-05T16:33:15.625Z,94245.78
2023-01-05T16:35:43.551Z,94250.97
2023-01-05T16:38:10.152Z,94270.63
2023-01-05T16:41:04.656Z,94270.88
2023-01-05T16:43:36.680Z,94269.66
2023-01-05T16:46:25.437Z,94267.06
2023-01-05T16:49:20.099Z,94274.81
2023-01-05T16:51:47.715Z,94277.44
2023-01-05T16:54:28.333Z,94270.47
2023-01-05T16:57:02.365Z,94295.34
2023-01-05T16:59:50.228Z,94304.09
2023-01-05T17:02:43.232Z,94302.09
2023-01-05T17:05:11.323Z,94299.50
2023-01-05T17:07:39.458Z,94308.25
2023-01-05T17:10:08.312Z,94299.69
2023-01-05T17:12:35.189Z,94301.47
2023-01-05T17:15:03.303Z,94300.25
2023-01-05T17:17:30.112Z,94324.16
2023-01-05T17:19:56.852Z,94303.84
2023-01-05T17:22:23.601Z,94318.34
2023-01-05T17:24:51.823Z,94318.94
2023-01-05T17:27:18.480Z,94335.06
2023-01-05T17:29:45.219Z,94314.97
2023-01-05T17:32:11.991Z,94318.16
2023-01-05T17:34:40.770Z,94334.06
2023-01-05T17:37:07.509Z,94332.66
2023-01-05T17:39:34.326Z,94346.38
2023-01-05T17:42:22.742Z,94338.84
2023-01-05T17:44:52.040Z,94344.78
2023-01-05T17:47:18.901Z,94347.75
2023-01-05T17:49:45.608Z,94352.31
2023-01-05T17:52:13.751Z,94356.69
2023-01-05T17:54:41.909Z,94349.13
2023-01-05T17:57:12.245Z,94349.13
2023-01-05T17:59:39.083Z,94360.25
2023-01-05T18:02:05.829Z,94353.13
2023-01-05T18:04:32.660Z,94359.66
2023-01-05T18:07:01.035Z,94345.75
2023-01-05T18:09:27.881Z,94356.28
2023-01-05T18:11:54.540Z,94351.72
2023-01-05T18:14:21.266Z,94358.66
2023-01-05T18:16:47.945Z,94354.88
2023-01-05T18:21:47.062Z,94373.59
2023-01-05T18:24:13.764Z,94353.13
2023-01-05T18:26:40.504Z,94363.47
2023-01-05T18:29:07.159Z,94391.47
2023-01-05T18:31:35.853Z,94388.09
2023-01-05T18:34:05.281Z,94394.84
2023-01-05T18:36:31.989Z,94392.22
2023-01-05T18:38:58.667Z,94403.50
2023-01-05T18:41:25.437Z,94391.59
2023-01-05T18:43:52.316Z,94389.22
2023-01-05T18:46:19.051Z,94402.69
2023-01-05T18:48:50.018Z,94401.53
2023-01-05T18:51:17.222Z,94401.25
2023-01-05T18:53:44.011Z,94409.41
2023-01-05T18:56:12.390Z,94404.81
2023-01-05T18:58:39.353Z,94415.94
2023-01-05T19:01:16.356Z,94405.03
2023-01-05T19:03:43.512Z,94411.94
2023-01-05T19:06:15.820Z,94401.78
2023-01-05T19:08:43.088Z,94406.34
2023-01-05T19:11:24.927Z,94407.88
2023-01-05T19:13:52.286Z,94414.03
2023-01-05T19:16:20.502Z,94424.97
2023-01-05T19:18:52.883Z,94418.63
2023-01-05T19:21:20.664Z,94425.94
2023-01-05T19:23:47.332Z,94427.91
2023-01-05T19:26:13.940Z,94436.78
2023-01-05T19:28:40.712Z,94433.03
2023-01-05T19:31:13.013Z,94430.69
2023-01-05T19:33:40.333Z,94440.41
2023-01-05T19:36:10.948Z,94448.94
2023-01-05T19:38:37.923Z,94450.06
2023-01-05T19:41:22.252Z,94452.03
2023-01-05T19:43:50.683Z,94465.56
2023-01-05T19:46:19.523Z,94472.91
2023-01-05T19:48:46.573Z,94465.97
2023-01-05T19:51:18.825Z,94468.72
2023-01-05T19:53:45.525Z,94465.97
2023-01-05T19:56:14.316Z,94464.34
2023-01-05T19:58:42.234Z,94481.25
2023-01-05T20:01:11.771Z,94479.81
2023-01-05T20:03:38.555Z,94475.47
2023-01-05T20:06:11.123Z,94480.13
2023-01-05T20:08:38.699Z,94474.53
2023-01-05T20:11:11.822Z,94476.13
2023-01-05T20:13:39.754Z,94476.28
2023-01-05T20:16:08.910Z,94482.03
2023-01-05T20:18:35.828Z,94482.47
2023-01-05T20:21:05.004Z,94484.38
2023-01-05T20:23:42.887Z,94481.78
2023-01-05T20:26:15.206Z,94480.81
2023-01-05T20:28:42.563Z,94489.78
2023-01-05T20:31:36.603Z,94485.97
2023-01-05T20:34:06.882Z,94487.94
2023-01-05T20:36:34.010Z,94485.25
2023-01-05T20:39:02.994Z,94484.00
2023-01-05T20:41:31.712Z,94491.50
2023-01-05T20:43:58.603Z,94496.22
2023-01-05T20:46:43.003Z,94492.00
2023-01-05T20:49:10.785Z,94496.53
2023-01-05T20:51:37.663Z,94500.19
2023-01-05T20:54:06.110Z,94507.94
2023-01-05T20:56:38.326Z,94515.44
2023-01-05T20:59:08.209Z,94515.84
2023-01-05T21:01:36.231Z,94516.38
2023-01-05T21:04:04.203Z,94528.91
2023-01-05T21:06:30.861Z,94526.25
2023-01-05T21:08:57.692Z,94527.84
2023-01-05T21:11:26.157Z,94533.28
2023-01-05T21:13:56.997Z,94540.25
2023-01-05T21:16:28.076Z,94525.94
2023-01-05T21:18:55.299Z,94536.44
2023-01-05T21:21:23.506Z,94550.31
2023-01-05T21:23:51.149Z,94538.03
2023-01-05T21:26:18.832Z,94529.31
2023-01-05T21:28:47.751Z,94530.53
2023-01-05T21:31:16.281Z,94525.00
2023-01-05T21:33:43.552Z,94540.16
2023-01-05T21:36:16.519Z,94535.47
2023-01-05T21:39:01.079Z,94541.69
2023-01-05T21:41:52.217Z,94546.94
2023-01-05T21:44:20.044Z,94550.22
2023-01-05T21:46:47.676Z,94552.69
2023-01-05T21:49:14.573Z,94552.31
2023-01-05T21:51:59.967Z,94558.84
2023-01-05T21:54:45.626Z,94552.88
2023-01-05T21:57:12.488Z,94554.03
2023-01-05T21:59:39.575Z,94561.41
2023-01-05T22:02:06.828Z,94567.28
2023-01-05T22:04:33.552Z,94559.81
2023-01-05T22:07:00.197Z,94567.00
2023-01-05T22:09:26.768Z,94575.66
2023-01-05T22:11:53.451Z,94558.84
2023-01-05T22:14:20.017Z,94573.94
2023-01-05T22:16:46.817Z,94578.47
2023-01-05T22:19:13.425Z,94579.56
2023-01-05T22:21:40.046Z,94580.44
2023-01-05T22:24:07.289Z,94586.50
2023-01-05T22:26:33.899Z,94578.22
2023-01-05T22:29:00.563Z,94582.84
2023-01-05T22:31:28.854Z,94587.91
2023-01-05T22:33:57.815Z,94579.72
2023-01-05T22:36:25.655Z,94584.19
2023-01-05T22:38:53.216Z,94584.38
2023-01-05T22:41:22.719Z,94582.94
2023-01-05T22:43:50.179Z,94579.63
2023-01-05T22:46:19.843Z,94576.00
2023-01-05T22:48:47.852Z,94566.75
2023-01-05T22:51:21.375Z,94572.53
2023-01-05T22:53:49.376Z,94579.28
2023-01-05T22:56:17.243Z,94583.00
2023-01-05T22:58:44.056Z,94585.59
2023-01-05T23:01:21.416Z,94586.66
2023-01-05T23:03:48.558Z,94574.41
2023-01-05T23:06:15.510Z,94573.94
2023-01-05T23:08:42.632Z,94578.94
2023-01-05T23:11:14.598Z,94578.94
2023-01-05T23:13:41.776Z,94579.81
2023-01-05T23:16:09.090Z,94578.56
2023-01-05T23:18:36.685Z,94577.41
2023-01-05T23:21:05.531Z,94570.13
2023-01-05T23:23:32.559Z,94569.75
2023-01-05T23:25:59.586Z,94555.09
2023-01-05T23:28:27.368Z,94575.19
2023-01-05T23:30:55.834Z,94569.84
2023-01-05T23:33:24.975Z,94572.53
2023-01-05T23:35:52.805Z,94578.16
2023-01-05T23:38:20.020Z,94571.22
2023-01-05T23:40:48.853Z,94572.25
2023-01-05T23:43:17.558Z,94573.22
2023-01-05T23:45:44.692Z,94575.63
2023-01-05T23:48:11.935Z,94578.66
2023-01-05T23:50:47.021Z,94584.59
2023-01-05T23:53:13.940Z,94579.31
2023-01-05T23:55:41.166Z,94585.09
2023-01-05T23:58:08.604Z,94578.50
